createdAt,value
2023-02-14T03:06:57.530Z,83.53
2023-02-14T03:11:57.194Z,82.51
2023-02-14T03:16:57.237Z,82.03
2023-02-14T03:21:57.452Z,81.90
2023-02-14T03:26:57.096Z,83.68
2023-02-14T03:31:57.211Z,85.41
2023-02-14T03:36:57.042Z,83.81
2023-02-14T03:41:56.739Z,85.72
2023-02-14T03:46:56.722Z,84.53
2023-02-14T03:51:56.707Z,84.22
2023-02-14T03:59:39.783Z,83.43
2023-02-14T04:04:39.705Z,84.99
2023-02-14T04:09:39.524Z,83.81
2023-02-14T04:14:39.490Z,85.63
2023-02-14T04:19:39.390Z,84.61
2023-02-14T04:35:02.239Z,85.49
2023-02-14T04:40:01.977Z,86.21
2023-02-14T04:47:50.977Z,83.72
2023-02-14T06:48:05.172Z,82.36
2023-02-14T07:12:45.850Z,83.48
2023-02-14T07:17:44.097Z,83.09
2023-02-14T07:22:46.789Z,81.35
2023-02-14T07:27:44.839Z,80.94
2023-02-14T08:29:25.137Z,78.68
2023-02-14T15:17:26.280Z,71.26
2023-02-14T15:55:15.292Z,75.62
2023-02-14T16:59:53.801Z,78.69
2023-02-14T17:04:53.716Z,79.20
2023-02-14T17:11:20.669Z,78.86
2023-02-14T17:16:20.351Z,81.76
2023-02-14T17:21:20.366Z,82.79
2023-02-14T17:26:33.232Z,80.83
2023-02-14T17:31:20.319Z,82.87
2023-02-14T17:36:20.559Z,82.48
2023-02-14T17:44:05.419Z,80.32
2023-02-14T17:49:05.547Z,81.94
2023-02-14T17:54:05.423Z,81.35
2023-02-14T17:59:05.194Z,81.01
2023-02-14T18:04:05.184Z,83.67
2023-02-14T18:09:05.173Z,82.45
2023-02-14T18:14:05.640Z,82.29
2023-02-14T18:27:04.290Z,84.53
2023-02-14T18:33:23.720Z,82.26
2023-02-14T19:01:25.692Z,86.62
